createdAt,value
2022-08-19T00:00:47.050Z,0.00
2022-08-19T00:01:49.641Z,0.00
2022-08-19T00:02:50.292Z,0.00
2022-08-19T00:03:47.038Z,0.00
2022-08-19T00:04:47.092Z,0.00
2022-08-19T00:05:47.019Z,0.00
2022-08-19T00:06:47.035Z,0.00
2022-08-19T00:07:47.000Z,0.00
2022-08-19T00:08:46.978Z,0.00
2022-08-19T00:09:47.038Z,0.00
2022-08-19T00:10:46.971Z,0.00
2022-08-19T00:11:46.971Z,0.00
2022-08-19T00:12:47.249Z,0.00
2022-08-19T00:13:46.971Z,0.00
2022-08-19T00:14:46.911Z,0.00
2022-08-19T00:15:46.899Z,0.00
2022-08-19T00:16:46.911Z,0.00
2022-08-19T00:17:46.999Z,0.00
2022-08-19T00:18:46.858Z,0.00
2022-08-19T00:19:46.849Z,0.00
2022-08-19T00:20:46.849Z,0.00
2022-08-19T00:21:46.849Z,0.00
2022-08-19T00:22:46.874Z,0.00
2022-08-19T00:23:46.838Z,0.00
2022-08-19T00:24:50.697Z,0.00
2022-08-19T00:25:48.821Z,0.00
2022-08-19T00:26:46.785Z,0.00
2022-08-19T00:27:46.779Z,0.00
2022-08-19T00:28:46.800Z,0.00
2022-08-19T00:29:46.769Z,0.00
2022-08-19T00:30:47.739Z,0.00
2022-08-19T00:31:46.740Z,0.00
2022-08-19T00:32:46.740Z,0.00
2022-08-19T00:33:46.742Z,0.00
2022-08-19T00:34:46.692Z,0.00
2022-08-19T00:35:46.730Z,0.00
2022-08-19T00:36:47.670Z,0.00
2022-08-19T00:37:46.682Z,0.00
2022-08-19T00:38:46.660Z,0.00
2022-08-19T00:39:49.075Z,0.00
2022-08-19T00:40:46.630Z,0.00
2022-08-19T00:41:47.845Z,0.00
2022-08-19T00:42:46.692Z,0.00
2022-08-19T00:43:46.620Z,0.00
2022-08-19T00:44:46.600Z,0.00
2022-08-19T00:45:46.582Z,0.00
2022-08-19T00:46:55.376Z,0.00
2022-08-19T00:47:47.570Z,0.00
2022-08-19T00:48:46.557Z,0.00
2022-08-19T00:49:46.565Z,0.00
2022-08-19T00:50:51.741Z,0.00
2022-08-19T00:51:47.536Z,0.00
2022-08-19T00:52:46.634Z,0.00
2022-08-19T00:53:46.510Z,0.00
2022-08-19T00:54:50.756Z,0.00
2022-08-19T00:55:47.472Z,0.00
2022-08-19T00:56:46.464Z,0.00
2022-08-19T00:57:46.502Z,0.00
2022-08-19T00:58:46.432Z,0.00
2022-08-19T00:59:53.571Z,0.00
2022-08-19T01:00:47.425Z,0.00
2022-08-19T01:01:46.503Z,0.00
2022-08-19T01:02:46.480Z,0.00
2022-08-19T01:03:58.169Z,0.00
2022-08-19T01:04:47.351Z,0.00
2022-08-19T01:05:46.363Z,0.00
2022-08-19T01:06:46.342Z,0.00
2022-08-19T01:07:46.342Z,0.00
2022-08-19T01:08:46.351Z,0.00
2022-08-19T01:09:46.324Z,0.00
2022-08-19T01:10:46.307Z,0.00
2022-08-19T01:11:46.292Z,0.00
2022-08-19T01:12:46.309Z,0.00
2022-08-19T01:13:49.815Z,0.00
2022-08-19T01:14:46.242Z,0.00
2022-08-19T01:15:46.257Z,0.00
2022-08-19T01:16:46.214Z,0.00
2022-08-19T01:17:46.214Z,0.00
2022-08-19T01:18:46.225Z,0.00
2022-08-19T01:19:46.234Z,0.00
2022-08-19T01:20:46.193Z,0.00
2022-08-19T01:21:46.185Z,0.00
2022-08-19T01:22:46.163Z,0.00
2022-08-19T01:23:46.194Z,0.00
2022-08-19T01:24:49.729Z,0.00
2022-08-19T01:25:46.155Z,0.00
2022-08-19T01:26:46.631Z,0.00
2022-08-19T01:27:46.131Z,0.00
2022-08-19T01:28:46.093Z,0.00
2022-08-19T01:29:46.136Z,0.00
2022-08-19T01:30:51.085Z,0.00
2022-08-19T01:31:47.089Z,0.00
2022-08-19T01:32:46.069Z,0.00
2022-08-19T01:33:46.064Z,0.00
2022-08-19T01:34:46.167Z,0.00
2022-08-19T01:35:46.023Z,0.00
2022-08-19T01:36:46.034Z,0.00
2022-08-19T01:37:46.035Z,0.00
2022-08-19T01:38:46.006Z,0.00
2022-08-19T01:39:46.069Z,0.00
2022-08-19T01:40:45.987Z,0.00
2022-08-19T01:41:46.025Z,0.00
2022-08-19T01:42:46.062Z,0.00
2022-08-19T01:44:17.935Z,0.00
2022-08-19T01:44:46.934Z,0.00
2022-08-19T01:45:46.004Z,0.00
2022-08-19T01:46:45.914Z,0.00
2022-08-19T01:47:52.657Z,0.00
2022-08-19T01:48:46.885Z,0.00
2022-08-19T01:49:46.275Z,0.00
2022-08-19T01:50:45.834Z,0.00
2022-08-19T01:51:45.836Z,0.00
2022-08-19T01:52:45.875Z,0.00
2022-08-19T01:53:45.870Z,0.00
2022-08-19T01:54:45.843Z,0.00
2022-08-19T01:55:45.807Z,0.00
2022-08-19T01:56:45.791Z,0.00
2022-08-19T01:57:45.811Z,0.00
2022-08-19T01:58:45.787Z,0.00
2022-08-19T01:59:45.815Z,0.00
2022-08-19T02:00:45.763Z,0.00
2022-08-19T02:01:45.803Z,0.00
2022-08-19T02:02:45.734Z,0.00
2022-08-19T02:03:45.755Z,0.00
2022-08-19T02:04:45.719Z,0.00
2022-08-19T02:05:45.685Z,0.00
2022-08-19T02:06:45.675Z,0.00
2022-08-19T02:07:45.720Z,0.00
2022-08-19T02:08:45.646Z,0.00
2022-08-19T02:09:45.645Z,0.00
2022-08-19T02:10:45.625Z,0.00
2022-08-19T02:11:45.624Z,0.00
2022-08-19T02:12:45.597Z,0.00
2022-08-19T02:13:45.585Z,0.00
2022-08-19T02:14:45.587Z,0.00
2022-08-19T02:15:45.597Z,0.00
2022-08-19T02:16:45.588Z,0.00
2022-08-19T02:17:45.556Z,0.00
2022-08-19T02:18:45.556Z,0.00
2022-08-19T02:19:45.558Z,0.00
2022-08-19T02:20:45.515Z,0.00
2022-08-19T02:21:45.517Z,0.00
2022-08-19T02:22:45.534Z,0.00
2022-08-19T02:23:45.505Z,0.00
2022-08-19T02:24:45.487Z,0.00
2022-08-19T02:25:45.518Z,0.00
2022-08-19T02:26:45.508Z,0.00
2022-08-19T02:27:45.444Z,0.00
2022-08-19T02:28:45.429Z,0.00
2022-08-19T02:29:45.457Z,0.00
2022-08-19T02:30:45.427Z,0.00
2022-08-19T02:31:45.407Z,0.00
2022-08-19T02:32:45.377Z,0.00
2022-08-19T02:33:45.771Z,0.00
2022-08-19T02:34:45.356Z,0.00
2022-08-19T02:35:45.350Z,0.00
2022-08-19T02:36:45.387Z,0.00
2022-08-19T02:37:46.356Z,0.00
2022-08-19T02:38:54.206Z,0.00
2022-08-19T02:39:46.367Z,0.00
2022-08-19T02:40:45.349Z,0.00
2022-08-19T02:41:45.307Z,0.00
2022-08-19T02:42:45.294Z,0.00
2022-08-19T02:44:26.462Z,0.00
2022-08-19T02:44:46.297Z,0.00
2022-08-19T02:45:45.247Z,0.00
2022-08-19T02:46:45.247Z,0.00
2022-08-19T02:47:45.237Z,0.00
2022-08-19T02:48:45.239Z,0.00
2022-08-19T02:49:45.231Z,0.00
2022-08-19T02:50:53.257Z,0.00
2022-08-19T02:51:46.238Z,0.00
2022-08-19T02:52:45.220Z,0.00
2022-08-19T02:53:45.178Z,0.00
2022-08-19T02:54:45.197Z,0.00
2022-08-19T02:55:46.169Z,0.00
2022-08-19T02:56:45.136Z,0.00
2022-08-19T02:57:45.129Z,0.00
2022-08-19T02:58:45.160Z,0.00
2022-08-19T02:59:45.118Z,0.00
2022-08-19T03:00:45.106Z,0.00
2022-08-19T03:01:45.153Z,0.00
2022-08-19T03:02:45.108Z,0.00
2022-08-19T03:03:45.068Z,0.00
2022-08-19T03:04:45.068Z,0.00
2022-08-19T03:05:56.231Z,0.00
2022-08-19T03:06:46.099Z,0.00
2022-08-19T03:07:45.045Z,0.00
2022-08-19T03:08:45.032Z,0.00
2022-08-19T03:09:45.018Z,0.00
2022-08-19T03:10:45.009Z,0.00
2022-08-19T03:11:45.009Z,0.00
2022-08-19T03:12:44.969Z,0.00
2022-08-19T03:13:45.021Z,0.00
2022-08-19T03:14:44.988Z,0.00
2022-08-19T03:15:44.949Z,0.00
2022-08-19T03:16:44.960Z,0.00
2022-08-19T03:17:44.928Z,0.00
2022-08-19T03:18:44.931Z,0.00
2022-08-19T03:19:44.961Z,0.00
2022-08-19T03:20:44.908Z,0.00
2022-08-19T03:21:44.894Z,0.00
2022-08-19T03:22:44.909Z,0.00
2022-08-19T03:23:44.901Z,0.00
2022-08-19T03:24:44.860Z,0.00
2022-08-19T03:25:44.819Z,0.00
2022-08-19T03:26:44.891Z,0.00
2022-08-19T03:27:44.811Z,0.00
2022-08-19T03:28:50.968Z,0.00
2022-08-19T03:29:45.805Z,0.00
2022-08-19T03:30:44.762Z,0.00
2022-08-19T03:31:52.301Z,0.00
2022-08-19T03:32:45.785Z,0.00
2022-08-19T03:33:45.730Z,0.00
2022-08-19T03:34:44.731Z,0.00
2022-08-19T03:35:44.710Z,0.00
2022-08-19T03:36:44.720Z,0.00
2022-08-19T03:37:44.710Z,0.00
2022-08-19T03:38:44.699Z,0.00
2022-08-19T03:39:44.792Z,0.00
2022-08-19T03:40:44.680Z,0.00
2022-08-19T03:41:46.233Z,0.00
2022-08-19T03:42:48.668Z,0.00
2022-08-19T03:43:44.688Z,0.00
2022-08-19T03:44:44.640Z,0.00
2022-08-19T03:45:44.628Z,0.00
2022-08-19T03:46:44.711Z,0.00
2022-08-19T03:47:44.630Z,0.00
2022-08-19T03:48:44.610Z,0.00
2022-08-19T03:49:44.585Z,0.00
2022-08-19T03:50:44.601Z,0.00
2022-08-19T03:51:44.532Z,0.00
2022-08-19T03:52:45.520Z,0.00
2022-08-19T03:53:44.527Z,0.00
2022-08-19T03:54:44.562Z,0.00
2022-08-19T03:55:44.525Z,0.00
2022-08-19T03:56:44.527Z,0.00
2022-08-19T03:57:44.521Z,0.00
2022-08-19T03:58:44.546Z,0.00
2022-08-19T03:59:44.493Z,0.00
2022-08-19T04:00:44.492Z,0.00
2022-08-19T04:01:44.563Z,0.00
2022-08-19T04:02:58.026Z,0.00
2022-08-19T04:03:45.422Z,0.00
2022-08-19T04:04:44.609Z,0.00
2022-08-19T04:05:44.381Z,0.00
2022-08-19T04:06:44.426Z,0.00
2022-08-19T04:07:44.383Z,0.00
2022-08-19T04:08:44.361Z,0.00
2022-08-19T04:09:44.371Z,0.00
2022-08-19T04:10:44.351Z,0.00
2022-08-19T04:11:45.106Z,4.00
2022-08-19T04:12:44.373Z,4.00
2022-08-19T04:13:44.342Z,0.00
2022-08-19T04:14:44.361Z,0.00
2022-08-19T04:15:44.299Z,0.00
2022-08-19T04:16:44.330Z,4.00
2022-08-19T04:17:44.343Z,4.00
2022-08-19T04:18:44.296Z,4.00
2022-08-19T04:19:44.303Z,4.00
2022-08-19T04:20:44.304Z,0.00
2022-08-19T04:21:44.202Z,4.00
2022-08-19T04:22:44.201Z,4.00
2022-08-19T04:23:44.762Z,4.00
2022-08-19T04:24:44.207Z,4.00
2022-08-19T04:25:44.180Z,4.00
2022-08-19T04:26:44.191Z,8.00
2022-08-19T04:27:44.192Z,4.00
2022-08-19T04:28:44.151Z,8.00
2022-08-19T04:29:44.146Z,4.00
2022-08-19T04:30:44.385Z,8.00
2022-08-19T04:31:44.131Z,8.00
2022-08-19T04:32:44.102Z,4.00
2022-08-19T04:33:44.095Z,8.00
2022-08-19T04:35:15.755Z,8.00
2022-08-19T04:35:45.106Z,8.00
2022-08-19T04:36:44.092Z,12.00
2022-08-19T04:37:44.060Z,12.00
2022-08-19T04:38:44.053Z,12.00
2022-08-19T04:39:44.056Z,12.00
2022-08-19T04:40:44.013Z,12.00
2022-08-19T04:41:44.003Z,12.00
2022-08-19T04:42:44.018Z,16.00
2022-08-19T04:43:43.984Z,12.00
2022-08-19T04:44:46.417Z,16.00
2022-08-19T04:45:44.562Z,16.00
2022-08-19T04:46:50.886Z,16.00
2022-08-19T04:47:47.983Z,20.00
2022-08-19T04:48:44.944Z,16.00
2022-08-19T04:49:43.948Z,16.00
2022-08-19T04:50:43.913Z,20.00
2022-08-19T04:51:43.899Z,20.00
2022-08-19T04:52:43.930Z,20.00
2022-08-19T04:53:43.893Z,20.00
2022-08-19T04:54:43.900Z,20.00
2022-08-19T04:55:43.852Z,20.00
2022-08-19T04:56:43.863Z,20.00
2022-08-19T04:57:43.828Z,20.00
2022-08-19T04:58:43.853Z,24.00
2022-08-19T04:59:43.824Z,24.00
2022-08-19T05:00:43.838Z,24.00
2022-08-19T05:01:43.793Z,28.00
2022-08-19T05:02:43.773Z,28.00
2022-08-19T05:03:43.754Z,28.00
2022-08-19T05:04:43.755Z,28.00
2022-08-19T05:05:44.502Z,32.00
2022-08-19T05:06:43.735Z,32.00
2022-08-19T05:07:43.755Z,36.00
2022-08-19T05:08:43.712Z,36.00
2022-08-19T05:09:58.089Z,36.00
2022-08-19T05:10:44.686Z,40.00
2022-08-19T05:11:43.692Z,40.00
2022-08-19T05:12:43.656Z,44.00
2022-08-19T05:13:43.660Z,48.00
2022-08-19T05:14:43.665Z,48.00
2022-08-19T05:15:43.652Z,48.00
2022-08-19T05:16:43.634Z,48.00
2022-08-19T05:17:43.621Z,52.00
2022-08-19T05:18:43.635Z,52.00
2022-08-19T05:19:43.584Z,56.00
2022-08-19T05:20:43.607Z,60.00
2022-08-19T05:21:43.568Z,60.00
2022-08-19T05:22:43.597Z,64.00
2022-08-19T05:23:43.593Z,64.00
2022-08-19T05:25:02.498Z,68.00
2022-08-19T05:25:44.555Z,68.00
2022-08-19T05:26:43.535Z,64.00
2022-08-19T05:27:43.489Z,60.00
2022-08-19T05:28:43.493Z,60.00
2022-08-19T05:29:43.505Z,64.00
2022-08-19T05:30:47.561Z,68.00
2022-08-19T05:31:43.477Z,68.00
2022-08-19T05:32:43.461Z,72.00
2022-08-19T05:33:43.462Z,72.00
2022-08-19T05:34:43.446Z,80.00
2022-08-19T05:35:43.395Z,80.00
2022-08-19T05:36:43.379Z,80.00
2022-08-19T05:37:43.383Z,80.00
2022-08-19T05:38:43.390Z,80.00
2022-08-19T05:39:43.433Z,84.00
2022-08-19T05:40:43.386Z,84.00
2022-08-19T05:41:43.362Z,76.00
2022-08-19T05:42:43.359Z,72.00
2022-08-19T05:43:43.325Z,64.00
2022-08-19T05:44:43.466Z,60.00
2022-08-19T05:45:43.372Z,60.00
2022-08-19T05:46:43.296Z,60.00
2022-08-19T05:47:43.289Z,64.00
2022-08-19T05:48:43.315Z,68.00
2022-08-19T05:49:43.273Z,76.00
2022-08-19T05:50:43.259Z,80.00
2022-08-19T05:51:43.249Z,84.00
2022-08-19T05:52:43.629Z,84.00
2022-08-19T05:53:43.217Z,80.00
2022-08-19T05:54:43.228Z,80.00
2022-08-19T05:55:43.253Z,80.00
2022-08-19T05:56:43.167Z,84.00
2022-08-19T05:57:43.166Z,88.00
2022-08-19T05:58:43.146Z,96.00
2022-08-19T05:59:43.171Z,100.00
2022-08-19T06:00:43.207Z,104.00
2022-08-19T06:01:43.139Z,112.00
2022-08-19T06:02:43.182Z,112.00
2022-08-19T06:03:43.117Z,108.00
2022-08-19T06:04:43.078Z,108.00
2022-08-19T06:05:49.655Z,108.00
2022-08-19T06:06:44.106Z,108.00
2022-08-19T06:07:43.094Z,104.00
2022-08-19T06:08:43.058Z,104.00
2022-08-19T06:09:43.691Z,100.00
2022-08-19T06:10:44.038Z,100.00
2022-08-19T06:11:43.028Z,100.00
2022-08-19T06:12:43.012Z,96.00
2022-08-19T06:13:42.997Z,96.00
2022-08-19T06:14:43.017Z,96.00
2022-08-19T06:15:43.008Z,96.00
2022-08-19T06:16:42.980Z,92.00
2022-08-19T06:17:42.969Z,92.00
2022-08-19T06:18:42.999Z,92.00
2022-08-19T06:19:42.978Z,96.00
2022-08-19T06:20:55.515Z,92.00
2022-08-19T06:21:43.921Z,92.00
2022-08-19T06:22:42.904Z,92.00
2022-08-19T06:23:42.898Z,100.00
2022-08-19T06:24:42.879Z,100.00
2022-08-19T06:25:42.882Z,100.00
2022-08-19T06:26:42.945Z,96.00
2022-08-19T06:28:11.619Z,92.00
2022-08-19T06:28:43.870Z,96.00
2022-08-19T06:29:42.887Z,96.00
2022-08-19T06:30:42.850Z,112.00
2022-08-19T06:31:42.824Z,120.00
2022-08-19T06:32:43.160Z,136.00
2022-08-19T06:33:42.800Z,140.00
2022-08-19T06:34:42.778Z,152.00
2022-08-19T06:35:42.824Z,164.00
2022-08-19T06:36:42.778Z,176.00
2022-08-19T06:37:43.893Z,184.00
2022-08-19T06:38:42.740Z,208.00
2022-08-19T06:39:42.775Z,176.00
2022-08-19T06:41:47.322Z,224.00
2022-08-19T06:42:50.215Z,160.00
2022-08-19T06:43:43.700Z,136.00
2022-08-19T06:44:43.779Z,144.00
2022-08-19T06:45:43.705Z,152.00
2022-08-19T06:46:42.660Z,160.00
2022-08-19T06:47:42.648Z,168.00
2022-08-19T06:48:45.256Z,248.00
2022-08-19T06:49:42.595Z,200.00
2022-08-19T06:50:42.600Z,160.00
2022-08-19T06:51:44.276Z,172.00
2022-08-19T06:52:42.651Z,184.00
2022-08-19T06:53:42.817Z,188.00
2022-08-19T06:54:56.044Z,336.00
2022-08-19T06:55:43.633Z,312.00
2022-08-19T06:56:42.589Z,344.00
2022-08-19T06:57:42.545Z,364.00
2022-08-19T06:58:42.622Z,376.00
2022-08-19T06:59:42.539Z,384.00
2022-08-19T07:00:42.591Z,392.00
2022-08-19T07:01:42.462Z,396.00
2022-08-19T07:02:46.309Z,400.00
2022-08-19T07:03:43.534Z,392.00
2022-08-19T07:04:42.602Z,396.00
2022-08-19T07:05:45.797Z,388.00
2022-08-19T07:06:44.226Z,392.00
2022-08-19T07:07:42.424Z,388.00
2022-08-19T07:08:42.463Z,388.00
2022-08-19T07:09:42.394Z,396.00
2022-08-19T07:10:42.815Z,404.00
2022-08-19T07:11:42.424Z,416.00
2022-08-19T07:12:42.376Z,416.00
2022-08-19T07:13:42.419Z,424.00
2022-08-19T07:14:42.356Z,440.00
2022-08-19T07:15:42.354Z,452.00
2022-08-19T07:16:43.124Z,472.00
2022-08-19T07:17:42.365Z,480.00
2022-08-19T07:18:44.391Z,484.00
2022-08-19T07:19:42.288Z,496.00
2022-08-19T07:20:42.324Z,488.00
2022-08-19T07:21:42.333Z,428.00
2022-08-19T07:22:42.295Z,404.00
2022-08-19T07:23:42.261Z,328.00
2022-08-19T07:24:50.994Z,212.00
2022-08-19T07:25:43.266Z,148.00
2022-08-19T07:26:42.346Z,152.00
2022-08-19T07:27:42.197Z,152.00
2022-08-19T07:28:46.188Z,172.00
2022-08-19T07:29:43.189Z,188.00
2022-08-19T07:30:42.210Z,176.00
2022-08-19T07:31:43.576Z,192.00
2022-08-19T07:32:42.179Z,216.00
2022-08-19T07:33:42.187Z,272.00
2022-08-19T07:34:42.143Z,388.00
2022-08-19T07:35:42.149Z,392.00
2022-08-19T07:36:42.107Z,356.00
2022-08-19T07:37:42.101Z,404.00
2022-08-19T07:38:42.101Z,436.00
2022-08-19T07:39:42.221Z,488.00
2022-08-19T07:40:42.098Z,504.00
2022-08-19T07:41:42.070Z,492.00
2022-08-19T07:42:42.040Z,532.00
2022-08-19T07:43:42.080Z,544.00
2022-08-19T07:44:42.141Z,548.00
2022-08-19T07:45:42.049Z,540.00
2022-08-19T07:46:42.011Z,548.00
2022-08-19T07:47:58.577Z,536.00
2022-08-19T07:48:42.992Z,472.00
2022-08-19T07:49:42.001Z,444.00
2022-08-19T07:50:41.984Z,504.00
2022-08-19T07:51:41.992Z,456.00
2022-08-19T07:52:41.939Z,368.00
2022-08-19T07:53:41.967Z,408.00
2022-08-19T07:54:41.937Z,380.00
2022-08-19T07:55:43.766Z,404.00
2022-08-19T07:56:41.900Z,396.00
2022-08-19T07:57:41.956Z,420.00
2022-08-19T07:58:42.041Z,440.00
2022-08-19T07:59:42.027Z,400.00
2022-08-19T08:00:41.841Z,296.00
2022-08-19T08:01:42.109Z,252.00
2022-08-19T08:02:41.834Z,264.00
2022-08-19T08:03:41.847Z,272.00
2022-08-19T08:04:41.794Z,328.00
2022-08-19T08:05:43.975Z,416.00
2022-08-19T08:06:41.812Z,460.00
2022-08-19T08:07:41.836Z,480.00
2022-08-19T08:08:44.171Z,480.00
2022-08-19T08:09:42.965Z,448.00
2022-08-19T08:10:42.840Z,380.00
2022-08-19T08:11:42.804Z,348.00
2022-08-19T08:12:41.838Z,388.00
2022-08-19T08:13:41.696Z,436.00
2022-08-19T08:14:44.136Z,456.00
2022-08-19T08:15:42.647Z,552.00
2022-08-19T08:16:47.202Z,616.00
2022-08-19T08:17:49.651Z,604.00
2022-08-19T08:18:42.667Z,636.00
2022-08-19T08:19:42.519Z,656.00
2022-08-19T08:20:41.669Z,644.00
2022-08-19T08:21:41.646Z,648.00
2022-08-19T08:22:41.646Z,660.00
2022-08-19T08:23:41.659Z,692.00
2022-08-19T08:24:41.610Z,692.00
2022-08-19T08:25:41.685Z,680.00
2022-08-19T08:26:46.865Z,712.00
2022-08-19T08:27:42.690Z,732.00
2022-08-19T08:28:41.586Z,768.00
2022-08-19T08:29:42.547Z,764.00
2022-08-19T08:30:41.526Z,672.00
2022-08-19T08:31:41.558Z,640.00
2022-08-19T08:32:41.517Z,696.00
2022-08-19T08:33:41.511Z,596.00
2022-08-19T08:34:41.847Z,608.00
2022-08-19T08:35:41.504Z,696.00
2022-08-19T08:36:41.470Z,724.00
2022-08-19T08:37:41.448Z,732.00
2022-08-19T08:38:42.061Z,744.00
2022-08-19T08:39:41.493Z,764.00
2022-08-19T08:40:41.428Z,772.00
2022-08-19T08:41:41.480Z,760.00
2022-08-19T08:42:41.414Z,796.00
2022-08-19T08:43:41.437Z,812.00
2022-08-19T08:44:41.456Z,868.00
2022-08-19T08:45:42.464Z,888.00
2022-08-19T08:46:41.387Z,660.00
2022-08-19T08:47:42.112Z,812.00
2022-08-19T08:48:41.349Z,780.00
2022-08-19T08:49:41.351Z,348.00
2022-08-19T08:50:41.320Z,284.00
2022-08-19T08:52:41.311Z,228.00
2022-08-19T08:53:42.040Z,232.00
2022-08-19T08:54:41.280Z,316.00
2022-08-19T08:55:42.324Z,280.00
2022-08-19T08:56:41.293Z,748.00
2022-08-19T08:57:41.253Z,672.00
2022-08-19T08:58:41.237Z,680.00
2022-08-19T08:59:41.241Z,668.00
2022-08-19T09:00:41.215Z,708.00
2022-08-19T09:01:41.260Z,712.00
2022-08-19T09:02:43.353Z,724.00
2022-08-19T09:03:41.227Z,600.00
2022-08-19T09:04:41.212Z,320.00
2022-08-19T09:05:42.166Z,612.00
2022-08-19T09:06:42.163Z,460.00
2022-08-19T09:07:43.688Z,484.00
2022-08-19T09:08:41.159Z,648.00
2022-08-19T09:09:42.040Z,668.00
2022-08-19T09:10:43.972Z,288.00
2022-08-19T09:11:42.603Z,284.00
2022-08-19T09:12:42.981Z,804.00
2022-08-19T09:13:41.080Z,840.00
2022-08-19T09:14:50.222Z,912.00
2022-08-19T09:15:42.091Z,384.00
2022-08-19T09:16:41.067Z,992.00
2022-08-19T09:17:41.037Z,956.00
2022-08-19T09:18:41.053Z,1008.00
2022-08-19T09:19:41.026Z,960.00
2022-08-19T09:20:41.312Z,1016.00
2022-08-19T09:21:41.019Z,1028.00
2022-08-19T09:22:40.973Z,1004.00
2022-08-19T09:23:40.997Z,1028.00
2022-08-19T09:24:41.006Z,1024.00
2022-08-19T09:25:40.975Z,1008.00
2022-08-19T09:26:52.221Z,1028.00
2022-08-19T09:27:43.605Z,1012.00
2022-08-19T09:28:40.928Z,1000.00
2022-08-19T09:29:40.961Z,984.00
2022-08-19T09:30:40.889Z,984.00
2022-08-19T09:31:40.881Z,984.00
2022-08-19T09:32:40.871Z,908.00
2022-08-19T09:33:40.992Z,744.00
2022-08-19T09:34:44.271Z,720.00
2022-08-19T09:35:49.540Z,820.00
2022-08-19T09:36:41.829Z,840.00
2022-08-19T09:37:40.857Z,884.00
2022-08-19T09:38:43.692Z,980.00
2022-08-19T09:39:40.834Z,1044.00
2022-08-19T09:40:40.799Z,1032.00
2022-08-19T09:41:40.780Z,1048.00
2022-08-19T09:42:50.060Z,1044.00
2022-08-19T09:43:44.676Z,1040.00
2022-08-19T09:44:41.780Z,1080.00
2022-08-19T09:45:40.802Z,1060.00
2022-08-19T09:46:40.751Z,436.00
2022-08-19T09:47:40.801Z,464.00
2022-08-19T09:48:40.718Z,1012.00
2022-08-19T09:49:40.724Z,928.00
2022-08-19T09:50:51.843Z,456.00
2022-08-19T09:51:41.737Z,340.00
2022-08-19T09:52:40.725Z,320.00
2022-08-19T09:53:41.669Z,296.00
2022-08-19T09:54:40.687Z,496.00
2022-08-19T09:55:40.639Z,260.00
2022-08-19T09:56:42.373Z,252.00
2022-08-19T09:57:40.625Z,264.00
2022-08-19T09:58:40.625Z,276.00
2022-08-19T09:59:40.604Z,284.00
2022-08-19T10:00:40.599Z,284.00
2022-08-19T10:01:40.676Z,284.00
2022-08-19T10:02:40.583Z,280.00
2022-08-19T10:03:41.557Z,264.00
2022-08-19T10:04:40.564Z,244.00
2022-08-19T10:05:42.480Z,248.00
2022-08-19T10:06:46.586Z,272.00
2022-08-19T10:07:41.556Z,284.00
2022-08-19T10:08:40.557Z,320.00
2022-08-19T10:09:41.518Z,976.00
2022-08-19T10:10:43.179Z,800.00
2022-08-19T10:11:44.277Z,844.00
2022-08-19T10:12:41.536Z,816.00
2022-08-19T10:13:40.471Z,940.00
2022-08-19T10:14:40.447Z,1032.00
2022-08-19T10:15:45.243Z,1032.00
2022-08-19T10:16:41.437Z,1040.00
2022-08-19T10:17:40.428Z,952.00
2022-08-19T10:18:41.410Z,932.00
2022-08-19T10:19:40.480Z,776.00
2022-08-19T10:20:40.416Z,932.00
2022-08-19T10:21:40.510Z,952.00
2022-08-19T10:22:40.371Z,996.00
2022-08-19T10:23:40.388Z,984.00
2022-08-19T10:24:40.388Z,968.00
2022-08-19T10:25:40.356Z,1004.00
2022-08-19T10:26:40.341Z,1028.00
2022-08-19T10:27:40.327Z,1048.00
2022-08-19T10:28:40.483Z,1068.00
2022-08-19T10:29:46.478Z,1076.00
2022-08-19T10:30:41.308Z,1064.00
2022-08-19T10:32:01.076Z,1040.00
2022-08-19T10:32:41.295Z,1068.00
2022-08-19T10:33:53.994Z,1064.00
2022-08-19T10:34:48.294Z,1056.00
2022-08-19T10:35:56.236Z,992.00
2022-08-19T10:36:54.371Z,996.00
2022-08-19T10:37:57.108Z,964.00
2022-08-19T10:38:48.270Z,940.00
2022-08-19T10:39:43.265Z,980.00
2022-08-19T10:40:40.222Z,1072.00
2022-08-19T10:41:40.181Z,1036.00
2022-08-19T10:42:40.151Z,1060.00
2022-08-19T10:43:40.293Z,948.00
2022-08-19T10:44:40.111Z,948.00
2022-08-19T10:45:52.663Z,788.00
2022-08-19T10:46:41.132Z,296.00
2022-08-19T10:47:40.143Z,300.00
2022-08-19T10:48:40.139Z,1024.00
2022-08-19T10:49:40.102Z,1036.00
2022-08-19T10:50:40.093Z,1032.00
2022-08-19T10:51:48.036Z,960.00
2022-08-19T10:52:41.057Z,912.00
2022-08-19T10:53:41.087Z,824.00
2022-08-19T10:54:40.065Z,652.00
2022-08-19T10:55:40.067Z,368.00
2022-08-19T10:56:40.014Z,328.00
2022-08-19T10:58:01.282Z,312.00
2022-08-19T10:58:41.164Z,384.00
2022-08-19T10:59:40.036Z,1004.00
2022-08-19T11:00:40.027Z,932.00
2022-08-19T11:01:40.091Z,1096.00
2022-08-19T11:02:39.992Z,1100.00
2022-08-19T11:03:39.950Z,1116.00
2022-08-19T11:04:39.993Z,1100.00
2022-08-19T11:05:40.763Z,1132.00
2022-08-19T11:06:39.935Z,1084.00
2022-08-19T11:07:39.900Z,1060.00
2022-08-19T11:08:39.900Z,1064.00
2022-08-19T11:09:39.944Z,416.00
2022-08-19T11:10:39.957Z,400.00
2022-08-19T11:11:39.870Z,360.00
2022-08-19T11:12:39.891Z,348.00
2022-08-19T11:13:39.879Z,360.00
2022-08-19T11:14:39.854Z,1000.00
2022-08-19T11:15:39.821Z,956.00
2022-08-19T11:16:39.837Z,944.00
2022-08-19T11:17:39.861Z,916.00
2022-08-19T11:18:39.803Z,932.00
2022-08-19T11:19:39.783Z,836.00
2022-08-19T11:20:39.777Z,876.00
2022-08-19T11:21:39.792Z,948.00
2022-08-19T11:22:41.865Z,976.00
2022-08-19T11:23:39.746Z,512.00
2022-08-19T11:24:39.754Z,1044.00
2022-08-19T11:25:39.794Z,1060.00
2022-08-19T11:26:39.855Z,1048.00
2022-08-19T11:27:39.737Z,1040.00
2022-08-19T11:28:39.721Z,1052.00
2022-08-19T11:29:39.712Z,1068.00
2022-08-19T11:30:39.678Z,796.00
2022-08-19T11:31:39.696Z,936.00
2022-08-19T11:32:39.704Z,900.00
2022-08-19T11:33:39.636Z,692.00
2022-08-19T11:34:39.638Z,368.00
2022-08-19T11:35:39.636Z,340.00
2022-08-19T11:36:39.686Z,320.00
2022-08-19T11:37:39.606Z,284.00
2022-08-19T11:38:39.639Z,256.00
2022-08-19T11:39:39.875Z,244.00
2022-08-19T11:40:39.587Z,248.00
2022-08-19T11:41:39.591Z,264.00
2022-08-19T11:42:39.623Z,288.00
2022-08-19T11:43:39.556Z,320.00
2022-08-19T11:44:39.549Z,372.00
2022-08-19T11:45:39.581Z,964.00
2022-08-19T11:46:39.569Z,992.00
2022-08-19T11:47:39.480Z,1004.00
2022-08-19T11:48:39.479Z,996.00
2022-08-19T11:49:39.527Z,980.00
2022-08-19T11:50:39.493Z,960.00
2022-08-19T11:51:39.479Z,932.00
2022-08-19T11:52:39.483Z,928.00
2022-08-19T11:53:39.499Z,964.00
2022-08-19T11:54:39.487Z,936.00
2022-08-19T11:55:39.431Z,932.00
2022-08-19T11:56:39.438Z,1012.00
2022-08-19T11:57:39.452Z,1064.00
2022-08-19T11:58:39.460Z,1068.00
2022-08-19T11:59:39.421Z,1072.00
2022-08-19T12:00:39.409Z,1060.00
2022-08-19T12:01:39.372Z,1052.00
2022-08-19T12:02:39.382Z,1040.00
2022-08-19T12:03:39.387Z,1032.00
2022-08-19T12:04:39.359Z,772.00
2022-08-19T12:05:39.333Z,344.00
2022-08-19T12:06:39.325Z,636.00
2022-08-19T12:07:39.311Z,1056.00
2022-08-19T12:08:39.344Z,1024.00
2022-08-19T12:09:42.171Z,984.00
2022-08-19T12:10:39.306Z,828.00
2022-08-19T12:11:39.295Z,920.00
2022-08-19T12:12:39.295Z,756.00
2022-08-19T12:13:39.274Z,696.00
2022-08-19T12:14:39.245Z,696.00
2022-08-19T12:15:39.275Z,768.00
2022-08-19T12:16:42.618Z,868.00
2022-08-19T12:17:40.256Z,904.00
2022-08-19T12:18:39.251Z,928.00
2022-08-19T12:19:39.216Z,976.00
2022-08-19T12:20:39.185Z,996.00
2022-08-19T12:21:39.190Z,1004.00
2022-08-19T12:22:39.226Z,996.00
2022-08-19T12:23:39.162Z,1036.00
2022-08-19T12:24:39.169Z,1052.00
2022-08-19T12:25:39.135Z,1064.00
2022-08-19T12:26:53.237Z,1064.00
2022-08-19T12:27:56.838Z,1004.00
2022-08-19T12:28:40.171Z,964.00
2022-08-19T12:29:39.136Z,908.00
2022-08-19T12:30:39.139Z,1020.00
2022-08-19T12:31:39.111Z,1016.00
2022-08-19T12:32:39.112Z,1016.00
2022-08-19T12:33:39.097Z,1008.00
2022-08-19T12:34:39.090Z,992.00
2022-08-19T12:35:41.962Z,964.00
2022-08-19T12:36:40.632Z,996.00
2022-08-19T12:37:39.114Z,996.00
2022-08-19T12:38:39.095Z,996.00
2022-08-19T12:39:39.135Z,1020.00
2022-08-19T12:40:39.005Z,996.00
2022-08-19T12:41:51.237Z,1000.00
2022-08-19T12:42:39.999Z,1008.00
2022-08-19T12:43:38.992Z,1028.00
2022-08-19T12:44:39.033Z,996.00
2022-08-19T12:45:39.011Z,1028.00
2022-08-19T12:46:38.970Z,1056.00
2022-08-19T12:47:38.931Z,1040.00
2022-08-19T12:48:39.908Z,1028.00